createdAt,value
2023-04-15T00:01:50.200Z,101048.22
2023-04-15T00:04:16.788Z,101053.09
2023-04-15T00:06:43.259Z,101041.16
2023-04-15T00:09:09.707Z,101045.56
2023-04-15T00:11:36.131Z,101050.94
2023-04-15T00:14:02.564Z,101054.72
2023-04-15T00:16:29.160Z,101059.44
2023-04-15T00:18:55.659Z,101052.72
2023-04-15T00:21:22.164Z,101054.72
2023-04-15T00:23:52.574Z,101051.44
2023-04-15T00:26:19.774Z,101052.94
2023-04-15T00:28:47.027Z,101046.22
2023-04-15T00:31:13.670Z,101046.34
2023-04-15T00:33:40.156Z,101053.34
2023-04-15T00:36:07.294Z,101049.47
2023-04-15T00:38:33.864Z,101044.06
2023-04-15T00:41:00.377Z,101046.69
2023-04-15T00:43:27.728Z,101048.00
2023-04-15T00:45:57.376Z,101049.78
2023-04-15T00:48:24.502Z,101049.41
2023-04-15T00:50:51.019Z,101061.19
2023-04-15T00:53:17.512Z,101054.91
2023-04-15T00:55:43.963Z,101059.81
2023-04-15T00:58:10.425Z,101059.13
2023-04-15T01:00:37.465Z,101064.19
2023-04-15T01:03:04.131Z,101060.06
2023-04-15T01:05:31.354Z,101057.91
2023-04-15T01:07:58.178Z,101063.59
2023-04-15T01:10:24.644Z,101061.44
2023-04-15T01:12:51.347Z,101060.09
2023-04-15T01:15:17.927Z,101060.56
2023-04-15T01:17:44.830Z,101063.03
2023-04-15T01:20:12.190Z,101063.25
2023-04-15T01:22:39.395Z,101063.41
2023-04-15T01:25:09.979Z,101063.25
2023-04-15T01:27:39.885Z,101060.44
2023-04-15T01:30:08.008Z,101057.84
2023-04-15T01:32:34.642Z,101061.78
2023-04-15T01:35:01.351Z,101058.53
2023-04-15T01:37:27.822Z,101054.72
2023-04-15T01:39:54.390Z,101049.34
2023-04-15T01:42:23.910Z,101058.16
2023-04-15T01:44:50.381Z,101066.31
2023-04-15T01:47:16.810Z,101057.13
2023-04-15T01:49:43.189Z,101058.09
2023-04-15T01:52:09.721Z,101063.94
2023-04-15T01:54:36.147Z,101064.59
2023-04-15T01:57:02.992Z,101054.31
2023-04-15T01:59:31.245Z,101062.88
2023-04-15T02:01:57.912Z,101063.47
2023-04-15T02:04:24.390Z,101062.94
2023-04-15T02:06:50.883Z,101072.34
2023-04-15T02:09:17.312Z,101071.53
2023-04-15T02:11:43.808Z,101074.16
2023-04-15T02:14:10.360Z,101074.84
2023-04-15T02:16:37.013Z,101074.00
2023-04-15T02:19:03.889Z,101071.38
2023-04-15T02:21:30.657Z,101077.28
2023-04-15T02:23:57.280Z,101071.38
2023-04-15T02:26:25.278Z,101068.94
2023-04-15T02:28:51.736Z,101074.97
2023-04-15T02:31:18.213Z,101078.88
2023-04-15T02:33:45.202Z,101081.78
2023-04-15T02:36:12.406Z,101090.94
2023-04-15T02:38:40.750Z,101085.38
2023-04-15T02:41:07.244Z,101092.16
2023-04-15T02:43:33.697Z,101093.41
2023-04-15T02:46:00.293Z,101097.31
2023-04-15T02:48:27.000Z,101106.09
2023-04-15T02:50:53.520Z,101103.47
2023-04-15T02:53:20.712Z,101109.69
2023-04-15T02:55:47.223Z,101109.44
2023-04-15T02:58:13.670Z,101109.97
2023-04-15T03:00:40.206Z,101107.59
2023-04-15T03:03:07.466Z,101123.94
2023-04-15T03:05:34.231Z,101120.06
2023-04-15T03:08:01.417Z,101112.22
2023-04-15T03:10:28.013Z,101119.91
2023-04-15T03:12:54.469Z,101121.88
2023-04-15T03:15:21.218Z,101120.19
2023-04-15T03:17:49.585Z,101123.13
2023-04-15T03:20:17.094Z,101118.50
2023-04-15T03:22:43.735Z,101125.09
2023-04-15T03:25:10.191Z,101124.03
2023-04-15T03:27:38.018Z,101128.25
2023-04-15T03:30:04.752Z,101123.97
2023-04-15T03:32:31.657Z,101120.00
2023-04-15T03:34:58.104Z,101128.94
2023-04-15T03:37:24.551Z,101131.00
2023-04-15T03:39:51.033Z,101129.09
2023-04-15T03:42:17.457Z,101126.09
2023-04-15T03:44:43.882Z,101136.41
2023-04-15T03:47:10.312Z,101141.63
2023-04-15T03:49:37.264Z,101146.84
2023-04-15T03:52:03.813Z,101141.47
2023-04-15T03:54:30.366Z,101147.13
2023-04-15T03:56:56.948Z,101145.22
2023-04-15T03:59:23.487Z,101150.34
2023-04-15T04:01:50.017Z,101157.66
2023-04-15T04:04:16.558Z,101154.34
2023-04-15T04:06:43.158Z,101152.03
2023-04-15T04:09:09.619Z,101165.66
2023-04-15T04:11:37.579Z,101166.75
2023-04-15T04:14:04.065Z,101173.75
2023-04-15T04:16:30.526Z,101170.44
2023-04-15T04:18:57.062Z,101175.00
2023-04-15T04:21:23.606Z,101175.97
2023-04-15T04:23:50.683Z,101178.84
2023-04-15T04:26:17.228Z,101169.94
2023-04-15T04:28:43.888Z,101183.41
2023-04-15T04:31:10.421Z,101188.75
2023-04-15T04:33:36.892Z,101189.88
2023-04-15T04:36:03.672Z,101186.84
2023-04-15T04:38:30.310Z,101192.88
2023-04-15T04:40:56.833Z,101205.94
2023-04-15T04:43:23.267Z,101207.88
2023-04-15T04:45:49.703Z,101208.97
2023-04-15T04:48:16.967Z,101223.91
2023-04-15T04:50:44.548Z,101215.56
2023-04-15T04:53:11.080Z,101222.28
2023-04-15T04:55:37.658Z,101228.19
2023-04-15T04:58:04.210Z,101229.00
2023-04-15T05:00:30.750Z,101231.72
2023-04-15T05:02:57.448Z,101239.56
2023-04-15T05:05:24.165Z,101238.88
2023-04-15T05:07:50.904Z,101243.00
2023-04-15T05:10:18.206Z,101251.66
2023-04-15T05:12:44.860Z,101254.13
2023-04-15T05:15:11.537Z,101260.97
2023-04-15T05:17:38.089Z,101266.06
2023-04-15T05:20:04.912Z,101270.03
2023-04-15T05:22:31.464Z,101264.41
2023-04-15T05:24:57.915Z,101263.31
2023-04-15T05:27:24.980Z,101276.75
2023-04-15T05:29:51.639Z,101271.41
2023-04-15T05:32:18.151Z,101287.19
2023-04-15T05:34:44.641Z,101277.31
2023-04-15T05:37:12.223Z,101291.72
2023-04-15T05:39:38.789Z,101296.25
2023-04-15T05:42:06.178Z,101296.94
2023-04-15T05:44:33.013Z,101307.09
2023-04-15T05:46:59.637Z,101306.81
2023-04-15T05:49:26.114Z,101311.63
2023-04-15T05:51:52.759Z,101319.47
2023-04-15T05:54:20.251Z,101315.88
2023-04-15T05:56:46.935Z,101320.97
2023-04-15T05:59:13.408Z,101323.28
2023-04-15T06:01:40.301Z,101320.69
2023-04-15T06:04:06.955Z,101321.06
2023-04-15T06:06:33.580Z,101328.91
2023-04-15T06:09:00.710Z,101327.28
2023-04-15T06:11:27.389Z,101335.94
2023-04-15T06:13:53.857Z,101334.00
2023-04-15T06:16:20.363Z,101343.06
2023-04-15T06:18:46.744Z,101348.56
2023-04-15T06:21:13.247Z,101355.69
2023-04-15T06:23:41.202Z,101354.03
2023-04-15T06:26:08.062Z,101364.44
2023-04-15T06:28:34.695Z,101366.06
2023-04-15T06:31:01.942Z,101365.22
2023-04-15T06:33:28.659Z,101371.22
2023-04-15T06:35:55.341Z,101369.41
2023-04-15T06:38:21.860Z,101382.31
2023-04-15T06:40:48.361Z,101378.69
2023-04-15T06:43:15.349Z,101389.94
2023-04-15T06:45:41.887Z,101384.78
2023-04-15T06:48:08.442Z,101394.41
2023-04-15T06:50:35.704Z,101396.66
2023-04-15T06:53:02.196Z,101397.94
2023-04-15T06:55:28.652Z,101405.94
2023-04-15T06:57:55.399Z,101410.84
2023-04-15T07:00:22.369Z,101418.31
2023-04-15T07:02:49.068Z,101421.50
2023-04-15T07:05:16.311Z,101425.56
2023-04-15T07:07:42.825Z,101432.50
2023-04-15T07:10:09.944Z,101439.97
2023-04-15T07:12:36.582Z,101431.81
2023-04-15T07:15:03.591Z,101440.31
2023-04-15T07:17:30.083Z,101443.63
2023-04-15T07:19:56.694Z,101451.63
2023-04-15T07:22:23.264Z,101449.69
2023-04-15T07:24:49.795Z,101460.69
2023-04-15T07:27:17.540Z,101451.91
2023-04-15T07:29:43.937Z,101460.84
2023-04-15T07:32:10.810Z,101462.28
2023-04-15T07:34:38.069Z,101464.16
2023-04-15T07:37:04.657Z,101468.53
2023-04-15T07:39:31.251Z,101466.63
2023-04-15T07:41:59.080Z,101465.69
2023-04-15T07:44:27.078Z,101471.31
2023-04-15T07:46:53.883Z,101472.16
2023-04-15T07:49:21.386Z,101475.13
2023-04-15T07:51:48.931Z,101483.31
2023-04-15T07:54:15.773Z,101474.16
2023-04-15T07:56:42.228Z,101483.31
2023-04-15T07:59:09.937Z,101486.47
2023-04-15T08:01:36.892Z,101484.19
2023-04-15T08:04:03.809Z,101489.44
2023-04-15T08:06:30.954Z,101486.00
2023-04-15T08:08:57.550Z,101499.13
2023-04-15T08:11:24.590Z,101496.88
2023-04-15T08:13:52.754Z,101500.63
2023-04-15T08:16:24.486Z,101507.06
2023-04-15T08:18:53.005Z,101505.72
2023-04-15T08:21:20.070Z,101505.88
2023-04-15T08:23:47.841Z,101513.47
2023-04-15T08:26:14.387Z,101512.63
2023-04-15T08:28:42.094Z,101511.31
2023-04-15T08:31:09.558Z,101507.84
2023-04-15T08:33:36.271Z,101518.84
2023-04-15T08:36:03.344Z,101519.69
2023-04-15T08:38:29.948Z,101526.28
2023-04-15T08:40:59.968Z,101524.63
2023-04-15T08:43:34.754Z,101532.84
2023-04-15T08:46:02.313Z,101536.94
2023-04-15T08:48:31.546Z,101542.88
2023-04-15T08:50:59.068Z,101552.09
2023-04-15T08:53:26.239Z,101554.03
2023-04-15T08:55:55.644Z,101554.69
2023-04-15T08:58:22.301Z,101563.91
2023-04-15T09:00:48.885Z,101565.56
2023-04-15T09:03:17.640Z,101557.16
2023-04-15T09:05:44.404Z,101565.06
2023-04-15T09:08:10.895Z,101568.66
2023-04-15T09:10:37.428Z,101574.59
2023-04-15T09:13:04.538Z,101577.38
2023-04-15T09:15:32.942Z,101582.84
2023-04-15T09:17:59.336Z,101586.75
2023-04-15T09:20:25.825Z,101587.84
2023-04-15T09:22:52.549Z,101591.59
2023-04-15T09:25:21.952Z,101598.69
2023-04-15T09:27:49.702Z,101602.34
2023-04-15T09:30:16.880Z,101606.66
2023-04-15T09:32:51.815Z,101601.84
2023-04-15T09:35:18.971Z,101606.41
2023-04-15T09:37:45.571Z,101608.56
2023-04-15T09:40:12.758Z,101610.03
2023-04-15T09:42:56.081Z,101613.16
2023-04-15T09:45:24.535Z,101607.06
2023-04-15T09:47:52.606Z,101613.16
2023-04-15T09:50:20.565Z,101614.66
2023-04-15T09:52:47.405Z,101614.13
2023-04-15T09:55:15.951Z,101612.94
2023-04-15T09:57:44.301Z,101626.91
2023-04-15T10:00:11.429Z,101619.25
2023-04-15T10:02:40.046Z,101617.59
2023-04-15T10:05:07.637Z,101633.03
2023-04-15T10:07:35.163Z,101634.25
2023-04-15T10:10:03.718Z,101627.69
2023-04-15T10:12:31.636Z,101622.94
2023-04-15T10:15:07.828Z,101635.97
2023-04-15T10:17:35.672Z,101634.72
2023-04-15T10:20:04.591Z,101640.06
2023-04-15T10:22:32.130Z,101642.13
2023-04-15T10:25:00.810Z,101645.06
2023-04-15T10:27:28.192Z,101641.66
2023-04-15T10:29:54.834Z,101637.66
2023-04-15T10:32:22.357Z,101636.72
2023-04-15T10:34:53.164Z,101636.91
2023-04-15T10:37:36.614Z,101642.84
2023-04-15T10:40:27.319Z,101646.16
2023-04-15T10:42:55.835Z,101642.16
2023-04-15T10:45:22.654Z,101652.06
2023-04-15T10:47:55.746Z,101645.34
2023-04-15T10:50:22.337Z,101652.66
2023-04-15T10:52:51.620Z,101668.88
2023-04-15T10:55:25.797Z,101660.09
2023-04-15T10:57:54.293Z,101669.31
2023-04-15T11:00:25.916Z,101677.53
2023-04-15T11:03:05.509Z,101671.69
2023-04-15T11:05:41.473Z,101679.41
2023-04-15T11:08:11.944Z,101674.72
2023-04-15T11:10:38.306Z,101683.59
2023-04-15T11:13:14.769Z,101671.34
2023-04-15T11:15:48.880Z,101683.25
2023-04-15T11:18:19.294Z,101681.28
2023-04-15T11:20:48.506Z,101683.38
2023-04-15T11:23:16.050Z,101683.78
2023-04-15T11:25:43.825Z,101684.47
2023-04-15T11:28:12.283Z,101685.28
2023-04-15T11:30:39.383Z,101681.56
2023-04-15T11:33:08.500Z,101687.13
2023-04-15T11:35:36.016Z,101688.13
2023-04-15T11:38:08.574Z,101692.97
2023-04-15T11:40:35.827Z,101687.31
2023-04-15T11:43:16.123Z,101690.78
2023-04-15T11:45:58.541Z,101692.69
2023-04-15T11:48:27.309Z,101693.22
2023-04-15T11:50:58.975Z,101695.41
2023-04-15T11:53:37.203Z,101702.00
2023-04-15T11:56:03.921Z,101692.19
2023-04-15T11:58:31.566Z,101700.72
2023-04-15T12:01:00.111Z,101708.63
2023-04-15T12:03:27.820Z,101715.97
2023-04-15T12:06:19.479Z,101723.25
2023-04-15T12:08:56.000Z,101714.72
2023-04-15T12:11:31.412Z,101720.56
2023-04-15T12:14:06.711Z,101723.22
2023-04-15T12:16:49.052Z,101734.06
2023-04-15T12:19:22.725Z,101729.97
2023-04-15T12:21:49.497Z,101739.09
2023-04-15T12:24:19.682Z,101742.78
2023-04-15T12:26:48.571Z,101737.84
2023-04-15T12:29:17.348Z,101744.31
2023-04-15T12:31:57.847Z,101752.69
2023-04-15T12:34:27.684Z,101748.44
2023-04-15T12:36:54.900Z,101754.16
2023-04-15T12:39:25.565Z,101758.78
2023-04-15T12:41:52.698Z,101757.28
2023-04-15T12:44:20.081Z,101756.91
2023-04-15T12:46:46.885Z,101756.44
2023-04-15T12:49:14.767Z,101773.31
2023-04-15T12:51:41.455Z,101768.72
2023-04-15T12:54:07.985Z,101776.69
2023-04-15T12:56:34.477Z,101783.03
2023-04-15T12:59:00.923Z,101783.81
2023-04-15T13:01:27.460Z,101789.41
2023-04-15T13:03:54.211Z,101781.94
2023-04-15T13:06:21.510Z,101799.44
2023-04-15T13:08:57.418Z,101804.56
2023-04-15T13:11:25.326Z,101807.78
2023-04-15T13:13:52.955Z,101809.25
2023-04-15T13:16:19.608Z,101802.59
2023-04-15T13:18:46.240Z,101813.97
2023-04-15T13:21:13.355Z,101816.91
2023-04-15T13:23:41.773Z,101820.47
2023-04-15T13:26:08.389Z,101824.09
2023-04-15T13:28:35.241Z,101812.63
2023-04-15T13:31:01.806Z,101825.03
2023-04-15T13:33:28.341Z,101829.84
2023-04-15T13:35:54.809Z,101821.03
2023-04-15T13:38:21.338Z,101830.38
2023-04-15T13:40:47.972Z,101829.69
2023-04-15T13:43:14.404Z,101831.91
2023-04-15T13:45:41.190Z,101843.81
2023-04-15T13:48:07.681Z,101840.47
2023-04-15T13:50:34.198Z,101854.88
2023-04-15T13:53:00.708Z,101853.50
2023-04-15T13:55:28.685Z,101857.75
2023-04-15T13:57:56.230Z,101858.44
2023-04-15T14:00:22.754Z,101861.63
2023-04-15T14:02:49.288Z,101864.66
2023-04-15T14:05:15.957Z,101854.75
2023-04-15T14:07:42.454Z,101848.84
2023-04-15T14:10:09.056Z,101873.69
2023-04-15T14:12:35.668Z,101861.44
2023-04-15T14:15:02.386Z,101871.22
2023-04-15T14:17:28.892Z,101878.63
2023-04-15T14:19:55.415Z,101881.22
2023-04-15T14:22:21.836Z,101889.63
2023-04-15T14:24:49.190Z,101893.13
2023-04-15T14:27:16.714Z,101906.97
2023-04-15T14:29:43.201Z,101890.53
2023-04-15T14:32:11.995Z,101907.69
2023-04-15T14:34:39.702Z,101915.25
2023-04-15T14:37:06.251Z,101914.25
2023-04-15T14:39:32.981Z,101914.09
2023-04-15T14:41:59.491Z,101924.81
2023-04-15T14:44:26.009Z,101927.94
2023-04-15T14:46:52.730Z,101919.53
2023-04-15T14:49:19.858Z,101937.03
2023-04-15T14:51:46.440Z,101932.06
2023-04-15T14:54:12.867Z,101929.94
2023-04-15T14:56:39.267Z,101948.72
2023-04-15T14:59:06.145Z,101934.88
2023-04-15T15:01:33.804Z,101952.81
2023-04-15T15:04:00.691Z,101954.59
2023-04-15T15:06:27.817Z,101955.75
2023-04-15T15:08:54.310Z,101969.09
2023-04-15T15:11:21.037Z,101967.13
2023-04-15T15:13:47.556Z,101971.91
2023-04-15T15:16:14.710Z,101970.25
2023-04-15T15:18:41.483Z,101968.94
2023-04-15T15:21:07.918Z,101975.97
2023-04-15T15:23:34.362Z,101991.25
2023-04-15T15:26:00.898Z,101975.38
2023-04-15T15:28:27.301Z,101980.06
2023-04-15T15:30:53.854Z,101984.72
2023-04-15T15:33:20.914Z,101992.47
2023-04-15T15:35:47.393Z,101985.25
2023-04-15T15:38:13.877Z,101987.06
2023-04-15T15:40:40.354Z,101990.69
2023-04-15T15:43:06.759Z,101990.06
2023-04-15T15:45:33.719Z,101993.47
2023-04-15T15:48:01.701Z,101994.31
2023-04-15T15:50:28.176Z,101999.84
2023-04-15T15:52:55.226Z,102003.16
2023-04-15T15:55:21.704Z,101996.94
2023-04-15T15:57:48.064Z,102004.44
2023-04-15T16:00:14.800Z,102006.69
2023-04-15T16:05:11.869Z,102011.31
2023-04-15T16:07:38.351Z,102022.13
2023-04-15T16:10:05.215Z,102026.22
2023-04-15T16:12:33.775Z,102038.00
2023-04-15T16:15:01.380Z,102031.34
2023-04-15T16:17:27.915Z,102038.34
2023-04-15T16:19:57.917Z,102031.28
2023-04-15T16:22:27.294Z,102037.31
2023-04-15T16:24:53.843Z,102035.97
2023-04-15T16:27:20.314Z,102037.97
2023-04-15T16:29:46.766Z,102044.16
2023-04-15T16:32:13.529Z,102052.50
2023-04-15T16:34:41.268Z,102054.59
2023-04-15T16:37:08.063Z,102057.53
2023-04-15T16:39:34.562Z,102061.88
2023-04-15T16:42:02.451Z,102056.25
2023-04-15T16:44:29.233Z,102058.72
2023-04-15T16:46:56.356Z,102072.09
2023-04-15T16:49:22.819Z,102060.38
2023-04-15T16:51:49.252Z,102076.59
2023-04-15T16:54:15.824Z,102074.13
2023-04-15T16:56:42.230Z,102080.50
2023-04-15T16:59:08.714Z,102081.75
2023-04-15T17:01:35.511Z,102079.66
2023-04-15T17:04:02.236Z,102081.94
2023-04-15T17:06:28.812Z,102082.66
2023-04-15T17:08:55.329Z,102085.34
2023-04-15T17:11:21.780Z,102092.16
2023-04-15T17:13:49.048Z,102093.72
2023-04-15T17:16:15.586Z,102091.53
2023-04-15T17:18:42.130Z,102093.19
2023-04-15T17:21:08.586Z,102091.09
2023-04-15T17:23:35.047Z,102095.81
2023-04-15T17:26:01.779Z,102108.28
2023-04-15T17:28:28.264Z,102115.47
2023-04-15T17:30:54.802Z,102107.19
2023-04-15T17:33:59.655Z,102106.50
2023-04-15T17:36:08.836Z,102114.81
2023-04-15T17:38:35.372Z,102109.56
2023-04-15T17:41:01.881Z,102116.63
2023-04-15T17:43:28.355Z,102113.59
2023-04-15T17:45:55.572Z,102115.13
2023-04-15T17:48:22.639Z,102125.22
2023-04-15T17:50:51.303Z,102128.81
2023-04-15T17:53:18.461Z,102128.13
2023-04-15T17:55:45.074Z,102135.03
2023-04-15T17:58:11.588Z,102137.81
2023-04-15T18:00:38.041Z,102147.78
2023-04-15T18:03:04.726Z,102143.06
2023-04-15T18:05:31.247Z,102148.72
2023-04-15T18:07:57.816Z,102150.69
2023-04-15T18:10:24.351Z,102147.63
2023-04-15T18:12:50.904Z,102151.34
2023-04-15T18:15:17.431Z,102158.00
2023-04-15T18:17:44.098Z,102157.84
2023-04-15T18:20:11.216Z,102155.06
2023-04-15T18:22:37.852Z,102168.09
2023-04-15T18:25:05.001Z,102169.75
2023-04-15T18:27:32.176Z,102166.19
2023-04-15T18:29:58.681Z,102169.78
2023-04-15T18:32:25.418Z,102174.06
2023-04-15T18:34:51.884Z,102179.47
2023-04-15T18:37:18.481Z,102183.88
2023-04-15T18:39:45.030Z,102181.00
2023-04-15T18:42:11.422Z,102185.78
2023-04-15T18:44:37.906Z,102185.22
2023-04-15T18:47:04.491Z,102178.34
2023-04-15T18:49:33.160Z,102189.94
2023-04-15T18:51:59.624Z,102190.09
2023-04-15T18:54:26.153Z,102187.72
2023-04-15T18:56:52.623Z,102202.94
2023-04-15T18:59:19.110Z,102197.28
2023-04-15T19:01:55.255Z,102202.38
2023-04-15T19:04:21.801Z,102202.25
2023-04-15T19:06:48.724Z,102216.88
2023-04-15T19:09:16.159Z,102217.84
2023-04-15T19:11:43.762Z,102215.50
2023-04-15T19:14:10.820Z,102219.81
2023-04-15T19:16:37.842Z,102228.50
2023-04-15T19:19:05.747Z,102220.91
2023-04-15T19:21:32.681Z,102222.44
2023-04-15T19:24:00.505Z,102220.63
2023-04-15T19:26:27.621Z,102219.38
2023-04-15T19:28:54.899Z,102220.75
2023-04-15T19:31:21.353Z,102224.50
2023-04-15T19:33:47.807Z,102231.38
2023-04-15T19:36:14.397Z,102237.88
2023-04-15T19:38:40.968Z,102227.53
2023-04-15T19:41:09.679Z,102233.59
2023-04-15T19:43:36.655Z,102234.56
2023-04-15T19:46:04.087Z,102238.69
2023-04-15T19:48:30.892Z,102231.63
2023-04-15T19:50:57.431Z,102239.25
2023-04-15T19:53:25.564Z,102235.78
2023-04-15T19:55:52.124Z,102245.31
2023-04-15T19:58:18.644Z,102246.16
2023-04-15T20:00:45.142Z,102252.38
2023-04-15T20:03:11.716Z,102250.72
2023-04-15T20:05:38.242Z,102254.16
2023-04-15T20:08:04.929Z,102255.00
2023-04-15T20:10:31.851Z,102247.13
2023-04-15T20:12:58.427Z,102249.88
2023-04-15T20:15:24.893Z,102251.41
2023-04-15T20:17:51.621Z,102247.28
2023-04-15T20:20:18.605Z,102251.53
2023-04-15T20:22:45.342Z,102250.84
2023-04-15T20:25:11.822Z,102252.63
2023-04-15T20:27:38.308Z,102242.13
2023-04-15T20:30:05.359Z,102246.44
2023-04-15T20:32:35.425Z,102259.69
2023-04-15T20:35:03.635Z,102260.66
2023-04-15T20:37:30.971Z,102257.88
2023-04-15T20:39:57.485Z,102264.09
2023-04-15T20:42:23.954Z,102253.59
2023-04-15T20:44:50.520Z,102255.97
2023-04-15T20:47:17.241Z,102252.38
2023-04-15T20:49:43.715Z,102255.97
2023-04-15T20:52:10.169Z,102257.75
2023-04-15T20:54:36.732Z,102261.34
2023-04-15T20:57:03.286Z,102268.38
2023-04-15T20:59:30.041Z,102258.84
2023-04-15T21:01:59.490Z,102268.38
2023-04-15T21:04:26.107Z,102269.19
2023-04-15T21:06:52.572Z,102271.00
2023-04-15T21:09:19.088Z,102271.00
2023-04-15T21:12:00.432Z,102272.81
2023-04-15T21:14:28.335Z,102272.13
2023-04-15T21:16:55.017Z,102275.56
2023-04-15T21:19:21.692Z,102276.66
2023-04-15T21:21:48.113Z,102273.47
2023-04-15T21:24:14.596Z,102285.06
2023-04-15T21:26:41.098Z,102274.88
2023-04-15T21:29:10.400Z,102279.25
2023-04-15T21:31:37.993Z,102289.75
2023-04-15T21:34:05.106Z,102285.75
2023-04-15T21:36:31.820Z,102284.34
2023-04-15T21:38:58.338Z,102283.53
2023-04-15T21:41:24.861Z,102281.47
2023-04-15T21:43:51.419Z,102278.72
2023-04-15T21:46:23.320Z,102283.81
2023-04-15T21:48:52.379Z,102278.56
2023-04-15T21:51:18.956Z,102283.69
2023-04-15T21:53:45.653Z,102287.13
2023-04-15T21:56:12.149Z,102291.84
2023-04-15T21:58:38.593Z,102293.50
2023-04-15T22:01:05.658Z,102301.47
2023-04-15T22:03:34.082Z,102304.97
2023-04-15T22:06:02.337Z,102310.06
2023-04-15T22:08:28.872Z,102302.88
2023-04-15T22:10:55.464Z,102311.72
2023-04-15T22:13:21.966Z,102306.34
2023-04-15T22:15:48.470Z,102307.03
2023-04-15T22:18:14.982Z,102304.13
2023-04-15T22:20:41.543Z,102304.13
2023-04-15T22:23:08.949Z,102303.88
2023-04-15T22:25:38.269Z,102308.16
2023-04-15T22:28:09.388Z,102315.91
2023-04-15T22:30:40.143Z,102312.16
2023-04-15T22:33:07.784Z,102308.56
2023-04-15T22:35:36.146Z,102314.78
2023-04-15T22:38:04.080Z,102308.84
2023-04-15T22:40:30.675Z,102320.19
2023-04-15T22:42:57.242Z,102318.53
2023-04-15T22:45:23.732Z,102323.47
2023-04-15T22:47:50.382Z,102319.91
2023-04-15T22:50:16.844Z,102324.44
2023-04-15T22:52:46.151Z,102314.94
2023-04-15T22:55:13.102Z,102320.19
2023-04-15T22:57:39.783Z,102324.44
2023-04-15T23:00:07.376Z,102327.06
2023-04-15T23:02:34.747Z,102326.41
2023-04-15T23:05:06.281Z,102331.34
2023-04-15T23:07:38.752Z,102328.72
2023-04-15T23:10:05.693Z,102339.38
2023-04-15T23:12:32.251Z,102339.13
2023-04-15T23:14:58.752Z,102336.34
2023-04-15T23:17:25.316Z,102340.75
2023-04-15T23:19:51.889Z,102336.59
2023-04-15T23:22:18.462Z,102352.34
2023-04-15T23:24:44.980Z,102343.66
2023-04-15T23:27:11.417Z,102351.53
2023-04-15T23:29:37.942Z,102349.47
2023-04-15T23:32:04.895Z,102347.53
2023-04-15T23:34:31.651Z,102351.13
2023-04-15T23:36:58.082Z,102352.09
2023-04-15T23:39:24.550Z,102355.69
2023-04-15T23:41:51.002Z,102353.19
2023-04-15T23:44:17.482Z,102354.97
2023-04-15T23:46:43.920Z,102362.72
2023-04-15T23:49:10.777Z,102354.97
2023-04-15T23:51:37.408Z,102361.19
2023-04-15T23:54:03.926Z,102360.38
2023-04-15T23:56:30.420Z,102363.66
2023-04-15T23:58:56.898Z,102360.94
